createdAt,value
2022-10-04T00:01:55.825Z,1.20
2022-10-04T00:04:33.174Z,1.40
2022-10-04T00:07:05.677Z,1.50
2022-10-04T00:09:43.551Z,1.50
2022-10-04T00:12:19.507Z,1.17
2022-10-04T00:14:48.044Z,1.33
2022-10-04T00:17:23.782Z,1.60
2022-10-04T00:19:52.591Z,1.45
2022-10-04T00:25:50.154Z,1.70
2022-10-04T00:28:20.985Z,1.48
2022-10-04T00:31:16.478Z,1.40
2022-10-04T00:34:09.690Z,1.60
2022-10-04T00:37:05.725Z,1.40
2022-10-04T00:39:33.102Z,1.30
2022-10-04T00:42:39.758Z,1.65
2022-10-04T00:45:25.504Z,1.38
2022-10-04T00:48:04.231Z,1.50
2022-10-04T00:50:45.123Z,1.50
2022-10-04T00:53:39.031Z,1.30
2022-10-04T00:56:14.113Z,1.42
2022-10-04T00:59:14.396Z,1.60
2022-10-04T01:01:45.842Z,1.42
2022-10-04T01:04:25.533Z,1.48
2022-10-04T01:06:53.652Z,1.20
2022-10-04T01:09:22.772Z,1.30
2022-10-04T01:12:02.680Z,1.50
2022-10-04T01:14:45.558Z,1.40
2022-10-04T01:17:12.979Z,1.30
2022-10-04T01:19:51.554Z,1.52
2022-10-04T01:22:37.088Z,1.33
2022-10-04T01:25:05.065Z,1.58
2022-10-04T01:27:37.878Z,1.35
2022-10-04T01:30:09.739Z,1.50
2022-10-04T01:32:39.058Z,1.70
2022-10-04T01:35:12.159Z,1.80
2022-10-04T01:37:40.292Z,1.70
2022-10-04T01:40:11.835Z,1.40
2022-10-04T01:42:57.027Z,1.65
2022-10-04T01:45:28.856Z,1.30
2022-10-04T01:48:03.902Z,1.50
2022-10-04T01:50:38.142Z,1.40
2022-10-04T01:53:43.970Z,1.27
2022-10-04T01:56:22.172Z,1.60
2022-10-04T01:58:54.636Z,1.63
2022-10-04T02:01:35.572Z,1.63
2022-10-04T02:04:22.535Z,1.60
2022-10-04T02:06:56.584Z,1.88
2022-10-04T02:09:28.677Z,2.63
2022-10-04T02:11:58.700Z,1.90
2022-10-04T02:14:31.177Z,1.70
2022-10-04T02:17:00.328Z,1.60
2022-10-04T02:19:35.382Z,1.77
2022-10-04T02:22:04.653Z,1.92
2022-10-04T02:24:35.873Z,1.70
2022-10-04T02:27:03.674Z,2.05
2022-10-04T02:29:31.139Z,2.97
2022-10-04T02:32:18.546Z,1.88
2022-10-04T02:34:48.027Z,2.00
2022-10-04T02:37:15.674Z,2.20
2022-10-04T02:39:53.940Z,1.63
2022-10-04T02:42:34.299Z,2.40
2022-10-04T02:45:24.891Z,2.22
2022-10-04T02:48:11.927Z,2.00
2022-10-04T02:50:49.724Z,1.90
2022-10-04T02:54:03.179Z,1.75
2022-10-04T02:56:33.416Z,1.90
2022-10-04T02:59:03.871Z,2.10
2022-10-04T03:02:01.404Z,1.90
2022-10-04T03:04:32.839Z,1.92
2022-10-04T03:07:06.882Z,1.90
2022-10-04T03:09:36.772Z,1.75
2022-10-04T03:12:06.080Z,2.08
2022-10-04T03:14:34.411Z,2.25
2022-10-04T03:17:04.402Z,1.70
2022-10-04T03:19:33.858Z,1.70
2022-10-04T03:22:12.103Z,1.85
2022-10-04T03:24:53.664Z,1.80
2022-10-04T03:27:26.117Z,1.83
2022-10-04T03:29:58.867Z,2.00
2022-10-04T03:32:30.978Z,1.80
2022-10-04T03:35:07.904Z,2.47
2022-10-04T03:37:38.086Z,2.05
2022-10-04T03:40:10.042Z,1.70
2022-10-04T03:42:39.180Z,1.70
2022-10-04T03:45:17.061Z,1.90
2022-10-04T03:47:48.850Z,2.17
2022-10-04T03:50:26.954Z,2.28
2022-10-04T03:53:01.850Z,2.47
2022-10-04T03:55:36.491Z,1.88
2022-10-04T03:58:04.511Z,2.17
2022-10-04T04:00:32.372Z,2.00
2022-10-04T04:03:04.130Z,1.90
2022-10-04T04:06:03.458Z,1.90
2022-10-04T04:08:34.861Z,1.90
2022-10-04T04:11:05.892Z,1.95
2022-10-04T04:14:04.526Z,1.98
2022-10-04T04:16:32.919Z,2.03
2022-10-04T04:19:03.710Z,1.98
2022-10-04T04:21:32.243Z,1.70
2022-10-04T04:24:03.697Z,1.60
2022-10-04T04:26:41.392Z,1.67
2022-10-04T04:29:17.969Z,1.70
2022-10-04T04:32:06.272Z,1.80
2022-10-04T04:34:45.656Z,1.75
2022-10-04T04:37:13.090Z,1.50
2022-10-04T04:39:45.541Z,1.77
2022-10-04T04:42:21.403Z,1.35
2022-10-04T04:44:53.562Z,1.65
2022-10-04T04:47:36.478Z,1.60
2022-10-04T04:50:28.123Z,1.50
2022-10-04T04:53:27.027Z,1.60
2022-10-04T04:56:04.843Z,1.83
2022-10-04T04:58:41.857Z,1.75
2022-10-04T05:01:26.825Z,1.73
2022-10-04T05:04:05.566Z,1.33
2022-10-04T05:06:35.050Z,1.52
2022-10-04T05:09:04.326Z,1.70
2022-10-04T05:11:35.307Z,1.58
2022-10-04T05:14:12.799Z,1.40
2022-10-04T05:16:43.509Z,1.27
2022-10-04T05:19:24.378Z,1.38
2022-10-04T05:21:56.905Z,1.40
2022-10-04T05:24:45.196Z,1.23
2022-10-04T05:27:23.577Z,1.65
2022-10-04T05:30:06.451Z,1.45
2022-10-04T05:32:52.232Z,1.40
2022-10-04T05:35:22.700Z,1.50
2022-10-04T05:37:59.119Z,1.60
2022-10-04T05:40:38.068Z,1.85
2022-10-04T05:43:32.645Z,1.70
2022-10-04T05:46:23.551Z,1.50
2022-10-04T05:48:55.094Z,1.65
2022-10-04T05:51:29.585Z,1.50
2022-10-04T05:54:04.574Z,1.60
2022-10-04T05:56:55.580Z,1.23
2022-10-04T05:59:58.465Z,1.55
2022-10-04T06:02:44.323Z,1.48
2022-10-04T06:05:28.170Z,1.33
2022-10-04T06:08:17.324Z,1.70
2022-10-04T06:11:11.173Z,1.50
2022-10-04T06:14:04.625Z,1.95
2022-10-04T06:16:41.252Z,1.60
2022-10-04T06:19:31.123Z,1.55
2022-10-04T06:22:15.035Z,1.45
2022-10-04T06:24:45.425Z,1.60
2022-10-04T06:27:21.991Z,1.63
2022-10-04T06:30:13.077Z,1.50
2022-10-04T06:33:14.273Z,2.00
2022-10-04T06:35:44.748Z,1.65
2022-10-04T06:38:49.599Z,1.60
2022-10-04T06:41:39.890Z,1.90
2022-10-04T06:44:29.325Z,2.30
2022-10-04T06:47:11.687Z,1.65
2022-10-04T06:49:49.414Z,1.70
2022-10-04T06:52:41.557Z,1.40
2022-10-04T06:55:21.468Z,1.60
2022-10-04T06:58:10.224Z,1.58
2022-10-04T07:00:53.277Z,1.70
2022-10-04T07:03:39.915Z,1.70
2022-10-04T07:06:11.616Z,1.90
2022-10-04T07:08:52.894Z,1.83
2022-10-04T07:11:30.484Z,1.60
2022-10-04T07:14:00.608Z,1.92
2022-10-04T07:16:56.303Z,1.80
2022-10-04T07:19:30.872Z,1.60
2022-10-04T07:22:07.550Z,1.70
2022-10-04T07:24:53.506Z,1.67
2022-10-04T07:27:22.937Z,1.60
2022-10-04T07:29:56.203Z,1.60
2022-10-04T07:32:37.034Z,2.00
2022-10-04T07:35:10.681Z,1.80
2022-10-04T07:37:53.954Z,1.60
2022-10-04T07:40:30.187Z,2.05
2022-10-04T07:43:04.512Z,1.60
2022-10-04T07:45:41.401Z,1.77
2022-10-04T07:48:23.317Z,1.60
2022-10-04T07:51:18.784Z,2.40
2022-10-04T07:53:59.543Z,1.98
2022-10-04T07:56:44.605Z,2.63
2022-10-04T07:59:35.224Z,1.83
2022-10-04T08:02:32.459Z,1.88
2022-10-04T08:05:29.594Z,1.85
2022-10-04T08:08:00.692Z,2.05
2022-10-04T08:10:38.140Z,1.88
2022-10-04T08:13:29.207Z,2.03
2022-10-04T08:16:04.318Z,1.60
2022-10-04T08:18:49.866Z,1.40
2022-10-04T08:21:27.098Z,1.75
2022-10-04T08:24:15.204Z,1.70
2022-10-04T08:27:15.850Z,1.77
2022-10-04T08:30:01.179Z,2.10
2022-10-04T08:32:43.116Z,1.80
2022-10-04T08:35:50.138Z,1.70
2022-10-04T08:38:18.224Z,1.70
2022-10-04T08:41:16.567Z,1.98
2022-10-04T08:44:15.047Z,2.40
2022-10-04T08:47:05.567Z,1.90
2022-10-04T08:49:54.097Z,1.75
2022-10-04T08:52:53.758Z,2.08
2022-10-04T08:55:35.296Z,1.80
2022-10-04T08:58:05.723Z,1.80
2022-10-04T09:01:18.507Z,1.80
2022-10-04T09:04:01.948Z,1.60
2022-10-04T09:06:41.209Z,1.92
2022-10-04T09:09:39.720Z,1.42
2022-10-04T09:12:13.294Z,1.48
2022-10-04T09:14:51.523Z,1.65
2022-10-04T09:17:23.670Z,1.70
2022-10-04T09:19:55.221Z,1.60
2022-10-04T09:22:57.477Z,1.60
2022-10-04T09:25:47.187Z,1.60
2022-10-04T09:28:47.375Z,1.33
2022-10-04T09:31:51.538Z,1.75
2022-10-04T09:34:43.346Z,1.90
2022-10-04T09:37:13.709Z,1.83
2022-10-04T09:40:01.641Z,1.92
2022-10-04T09:42:33.897Z,1.58
2022-10-04T09:45:18.277Z,2.20
2022-10-04T09:48:25.407Z,1.90
2022-10-04T09:51:08.491Z,1.95
2022-10-04T09:53:53.161Z,1.80
2022-10-04T09:56:35.737Z,1.60
2022-10-04T09:59:37.705Z,2.03
2022-10-04T10:04:38.249Z,1.70
2022-10-04T10:07:39.825Z,1.92
2022-10-04T10:10:44.390Z,1.65
2022-10-04T10:13:41.425Z,1.63
2022-10-04T10:16:21.272Z,1.80
2022-10-04T10:18:59.475Z,2.40
2022-10-04T10:22:06.759Z,2.30
2022-10-04T10:25:08.707Z,2.17
2022-10-04T10:28:03.075Z,1.42
2022-10-04T10:30:36.184Z,1.80
2022-10-04T10:33:30.236Z,1.33
2022-10-04T10:36:10.202Z,1.48
2022-10-04T10:38:46.740Z,1.45
2022-10-04T10:41:42.101Z,1.55
2022-10-04T10:44:09.651Z,1.83
2022-10-04T10:47:05.940Z,1.60
2022-10-04T10:49:44.879Z,1.70
2022-10-04T10:52:39.961Z,1.80
2022-10-04T10:55:28.986Z,1.98
2022-10-04T10:58:26.661Z,1.65
2022-10-04T11:01:12.787Z,1.80
2022-10-04T11:03:55.930Z,1.50
2022-10-04T11:06:51.143Z,1.30
2022-10-04T11:09:46.452Z,1.77
2022-10-04T11:12:19.795Z,1.58
2022-10-04T11:15:25.867Z,1.65
2022-10-04T11:18:32.183Z,1.70
2022-10-04T11:21:22.131Z,1.70
2022-10-04T11:24:17.207Z,1.80
2022-10-04T11:26:59.474Z,2.00
2022-10-04T11:29:41.665Z,1.35
2022-10-04T11:32:37.235Z,1.25
2022-10-04T11:35:37.128Z,1.55
2022-10-04T11:38:29.956Z,1.70
2022-10-04T11:41:15.852Z,1.75
2022-10-04T11:43:52.779Z,1.80
2022-10-04T11:46:23.409Z,1.63
2022-10-04T11:49:23.599Z,1.70
2022-10-04T11:52:02.314Z,1.63
2022-10-04T11:54:48.105Z,1.92
2022-10-04T11:57:40.292Z,1.88
2022-10-04T12:00:26.237Z,1.95
2022-10-04T12:03:21.264Z,1.55
2022-10-04T12:06:14.836Z,1.30
2022-10-04T12:08:54.476Z,1.45
2022-10-04T12:11:59.148Z,1.45
2022-10-04T12:14:56.856Z,1.90
2022-10-04T12:17:46.406Z,1.80
2022-10-04T12:20:48.447Z,1.75
2022-10-04T12:23:25.186Z,1.77
2022-10-04T12:26:19.229Z,1.83
2022-10-04T12:29:05.427Z,1.85
2022-10-04T12:31:58.941Z,1.90
2022-10-04T12:34:59.449Z,1.80
2022-10-04T12:37:43.120Z,1.80
2022-10-04T12:40:10.540Z,2.20
2022-10-04T12:42:50.253Z,2.20
2022-10-04T12:45:17.937Z,2.00
2022-10-04T12:47:51.511Z,2.05
2022-10-04T12:50:31.814Z,2.10
2022-10-04T12:53:21.317Z,2.00
2022-10-04T12:56:22.593Z,2.40
2022-10-04T12:59:18.974Z,2.05
2022-10-04T13:02:21.399Z,2.10
2022-10-04T13:04:55.682Z,3.00
2022-10-04T13:07:44.670Z,2.28
2022-10-04T13:10:37.430Z,2.20
2022-10-04T13:13:23.539Z,2.40
2022-10-04T13:19:36.203Z,2.47
2022-10-04T13:25:52.411Z,2.80
2022-10-04T13:28:25.619Z,2.65
2022-10-04T13:31:07.092Z,2.60
2022-10-04T13:33:40.697Z,3.00
2022-10-04T13:38:54.021Z,2.72
2022-10-04T13:41:36.324Z,2.78
2022-10-04T13:44:33.487Z,3.25
2022-10-04T13:47:24.735Z,3.42
2022-10-04T13:50:29.184Z,3.50
2022-10-04T13:53:15.269Z,3.05
2022-10-04T13:56:18.349Z,3.10
2022-10-04T13:58:57.625Z,3.50
2022-10-04T14:01:33.732Z,3.60
2022-10-04T14:04:28.664Z,3.30
2022-10-04T14:07:12.660Z,3.25
2022-10-04T14:09:55.397Z,3.33
2022-10-04T14:12:36.841Z,3.80
2022-10-04T14:15:39.980Z,4.30
2022-10-04T14:18:28.616Z,3.45
2022-10-04T14:21:21.278Z,3.80
2022-10-04T14:24:16.633Z,4.38
2022-10-04T14:27:09.864Z,4.43
2022-10-04T14:30:08.346Z,4.10
2022-10-04T14:32:57.460Z,4.82
2022-10-04T14:35:33.900Z,4.35
2022-10-04T14:38:04.660Z,5.30
2022-10-04T14:40:40.929Z,4.72
2022-10-04T14:43:35.732Z,4.72
2022-10-04T14:46:09.195Z,4.72
2022-10-04T14:51:44.848Z,5.57
2022-10-04T14:54:29.309Z,5.65
2022-10-04T14:57:34.561Z,5.20
2022-10-04T15:00:23.984Z,5.00
2022-10-04T15:03:30.061Z,7.05
2022-10-04T15:06:10.938Z,6.80
2022-10-04T15:09:05.363Z,6.70
2022-10-04T15:12:21.616Z,7.30
2022-10-04T15:15:03.515Z,7.32
2022-10-04T15:17:38.133Z,8.05
2022-10-04T15:20:22.617Z,7.00
2022-10-04T15:22:57.616Z,7.80
2022-10-04T15:25:44.841Z,7.78
2022-10-04T15:28:43.289Z,8.95
2022-10-04T15:31:20.781Z,10.48
2022-10-04T15:34:22.216Z,9.52
2022-10-04T15:37:12.639Z,9.80
2022-10-04T15:39:42.870Z,10.85
2022-10-04T15:42:25.758Z,8.38
2022-10-04T15:45:09.720Z,7.03
2022-10-04T15:47:55.598Z,5.38
2022-10-04T15:50:32.289Z,5.93
2022-10-04T15:53:20.297Z,5.00
2022-10-04T15:56:10.200Z,5.25
2022-10-04T15:58:56.288Z,5.13
2022-10-04T16:02:05.125Z,5.90
2022-10-04T16:05:03.772Z,6.35
2022-10-04T16:08:03.965Z,7.57
2022-10-04T16:11:00.697Z,8.82
2022-10-04T16:13:31.047Z,8.27
2022-10-04T16:16:16.639Z,7.82
2022-10-04T16:18:55.086Z,6.82
2022-10-04T16:21:52.921Z,8.77
2022-10-04T16:24:20.310Z,8.05
2022-10-04T16:27:16.764Z,7.68
2022-10-04T16:30:28.116Z,7.65
2022-10-04T16:35:42.284Z,7.05
2022-10-04T16:38:12.471Z,7.50
2022-10-04T16:40:52.063Z,7.68
2022-10-04T16:43:19.420Z,6.43
2022-10-04T16:46:05.021Z,6.93
2022-10-04T16:48:41.641Z,6.93
2022-10-04T16:51:18.151Z,7.63
2022-10-04T16:54:23.856Z,8.00
2022-10-04T16:56:57.597Z,8.45
2022-10-04T17:02:25.852Z,10.63
2022-10-04T17:04:56.509Z,10.18
2022-10-04T17:07:27.951Z,12.48
2022-10-04T17:09:58.295Z,10.23
2022-10-04T17:12:45.881Z,9.75
2022-10-04T17:15:27.922Z,9.07
2022-10-04T17:18:34.550Z,9.00
2022-10-04T17:21:34.048Z,8.52
2022-10-04T17:24:20.801Z,10.10
2022-10-04T17:27:19.226Z,9.13
2022-10-04T17:30:03.666Z,7.90
2022-10-04T17:32:47.199Z,9.02
2022-10-04T17:35:26.806Z,10.82
2022-10-04T17:38:00.485Z,14.90
2022-10-04T17:43:12.372Z,9.82
2022-10-04T17:46:08.382Z,7.85
2022-10-04T17:49:06.038Z,7.30
2022-10-04T17:52:00.249Z,7.95
2022-10-04T17:54:55.383Z,8.50
2022-10-04T17:57:35.715Z,7.95
2022-10-04T18:00:11.736Z,6.60
2022-10-04T18:03:10.372Z,7.32
2022-10-04T18:05:46.598Z,7.40
2022-10-04T18:08:41.835Z,9.15
2022-10-04T18:11:33.610Z,9.65
2022-10-04T18:14:10.886Z,16.13
2022-10-04T18:16:56.574Z,14.18
2022-10-04T18:19:42.640Z,15.15
2022-10-04T18:22:15.977Z,13.70
2022-10-04T18:25:07.577Z,11.48
2022-10-04T18:27:50.452Z,9.35
2022-10-04T18:30:21.143Z,8.23
2022-10-04T18:32:55.040Z,7.70
2022-10-04T18:35:31.556Z,6.85
2022-10-04T18:38:05.391Z,6.80
2022-10-04T18:40:35.599Z,6.32
2022-10-04T18:43:03.129Z,6.07
2022-10-04T18:45:34.850Z,6.57
2022-10-04T18:48:15.603Z,5.82
2022-10-04T18:50:45.572Z,5.97
2022-10-04T18:53:34.546Z,6.28
2022-10-04T18:56:04.191Z,5.93
2022-10-04T18:59:04.940Z,5.97
2022-10-04T19:02:06.853Z,6.40
2022-10-04T19:04:48.073Z,9.57
2022-10-04T19:07:15.462Z,21.25
2022-10-04T19:09:51.728Z,14.23
2022-10-04T19:12:31.543Z,13.27
2022-10-04T19:15:37.511Z,13.85
2022-10-04T19:18:48.453Z,9.77
2022-10-04T19:21:26.654Z,12.33
2022-10-04T19:24:21.126Z,9.93
2022-10-04T19:26:54.675Z,10.20
2022-10-04T19:29:39.551Z,8.85
2022-10-04T19:32:42.922Z,7.60
2022-10-04T19:35:35.358Z,7.78
2022-10-04T19:38:20.915Z,7.32
2022-10-04T19:40:55.566Z,8.13
2022-10-04T19:43:44.740Z,7.50
2022-10-04T19:46:47.867Z,6.32
2022-10-04T19:49:41.824Z,6.88
2022-10-04T19:52:36.246Z,7.10
2022-10-04T19:55:13.044Z,5.90
2022-10-04T19:57:42.099Z,5.82
2022-10-04T20:00:13.814Z,5.55
2022-10-04T20:02:48.143Z,5.40
2022-10-04T20:05:25.300Z,5.38
2022-10-04T20:07:57.644Z,5.38
2022-10-04T20:10:34.539Z,5.05
2022-10-04T20:13:12.584Z,5.30
2022-10-04T20:15:40.398Z,4.90
2022-10-04T20:18:32.719Z,5.85
2022-10-04T20:21:03.595Z,5.50
2022-10-04T20:23:40.015Z,5.13
2022-10-04T20:26:10.080Z,5.53
2022-10-04T20:28:40.952Z,5.80
2022-10-04T20:31:10.755Z,5.97
2022-10-04T20:33:39.261Z,5.20
2022-10-04T20:36:11.719Z,5.47
2022-10-04T20:38:48.047Z,6.30
2022-10-04T20:41:53.944Z,10.18
2022-10-04T20:44:56.853Z,13.18
2022-10-04T20:47:57.745Z,8.55
2022-10-04T20:50:42.612Z,9.27
2022-10-04T20:53:18.956Z,8.48
2022-10-04T20:55:47.097Z,9.20
2022-10-04T20:58:35.532Z,8.10
2022-10-04T21:01:22.892Z,9.13
2022-10-04T21:03:50.520Z,7.55
2022-10-04T21:06:17.853Z,6.40
2022-10-04T21:08:45.329Z,6.50
2022-10-04T21:11:20.288Z,6.47
2022-10-04T21:13:59.810Z,6.45
2022-10-04T21:16:35.871Z,7.65
2022-10-04T21:19:34.160Z,8.07
2022-10-04T21:22:16.746Z,6.70
2022-10-04T21:24:50.028Z,8.88
2022-10-04T21:27:40.166Z,9.70
2022-10-04T21:30:14.016Z,10.68
2022-10-04T21:35:09.875Z,12.20
2022-10-04T21:37:37.411Z,10.10
2022-10-04T21:40:06.674Z,9.63
2022-10-04T21:42:34.165Z,9.00
2022-10-04T21:45:01.646Z,9.02
2022-10-04T21:47:30.827Z,8.63
2022-10-04T21:49:58.334Z,8.63
2022-10-04T21:52:25.743Z,7.68
2022-10-04T21:54:53.127Z,7.35
2022-10-04T21:57:22.421Z,7.10
2022-10-04T21:59:49.831Z,7.47
2022-10-04T22:02:17.314Z,6.70
2022-10-04T22:04:44.803Z,8.13
2022-10-04T22:07:12.220Z,6.50
2022-10-04T22:09:39.566Z,6.70
2022-10-04T22:12:06.961Z,6.68
2022-10-04T22:14:34.392Z,6.82
2022-10-04T22:17:02.875Z,7.07
2022-10-04T22:19:30.541Z,7.05
2022-10-04T22:21:58.093Z,6.85
2022-10-04T22:24:25.545Z,6.13
2022-10-04T22:26:53.061Z,6.03
2022-10-04T22:29:20.744Z,5.53
2022-10-04T22:31:52.779Z,5.60
2022-10-04T22:34:22.993Z,6.85
2022-10-04T22:36:52.291Z,6.47
2022-10-04T22:39:21.126Z,6.03
2022-10-04T22:41:52.670Z,5.57
2022-10-04T22:44:25.629Z,5.35
2022-10-04T22:46:58.535Z,5.70
2022-10-04T22:49:28.396Z,5.77
2022-10-04T22:51:58.135Z,6.53
2022-10-04T22:54:31.576Z,5.50
2022-10-04T22:56:59.679Z,5.75
2022-10-04T22:59:40.570Z,5.97
2022-10-04T23:02:15.129Z,6.85
2022-10-04T23:04:46.680Z,5.90
2022-10-04T23:07:14.232Z,5.90
2022-10-04T23:09:41.783Z,5.40
2022-10-04T23:12:09.999Z,6.05
2022-10-04T23:14:38.482Z,6.55
2022-10-04T23:17:18.213Z,6.93
2022-10-04T23:19:45.695Z,6.45
2022-10-04T23:22:17.940Z,7.10
2022-10-04T23:24:45.498Z,7.50
2022-10-04T23:27:17.608Z,6.57
2022-10-04T23:29:49.016Z,7.43
2022-10-04T23:32:19.187Z,7.53
2022-10-04T23:34:52.988Z,7.55
2022-10-04T23:37:27.669Z,7.20
2022-10-04T23:39:55.272Z,7.35
2022-10-04T23:42:29.870Z,7.85
2022-10-04T23:44:59.011Z,7.65
2022-10-04T23:47:33.712Z,7.63
2022-10-04T23:50:01.834Z,7.97
2022-10-04T23:52:40.437Z,7.40
2022-10-04T23:55:25.499Z,6.50
2022-10-04T23:57:52.871Z,6.93
